createdAt,value
2023-04-16T00:01:53.355Z,99.33
2023-04-16T00:04:21.494Z,99.34
2023-04-16T00:06:49.474Z,99.20
2023-04-16T00:09:17.389Z,98.56
2023-04-16T00:11:46.671Z,97.75
2023-04-16T00:14:14.476Z,97.89
2023-04-16T00:16:42.514Z,97.72
2023-04-16T00:19:10.885Z,98.22
2023-04-16T00:21:39.176Z,98.14
2023-04-16T00:24:07.254Z,98.08
2023-04-16T00:26:35.126Z,98.48
2023-04-16T00:29:04.500Z,100.00
2023-04-16T00:31:35.002Z,99.39
2023-04-16T00:34:02.939Z,99.08
2023-04-16T00:36:31.013Z,100.00
2023-04-16T00:39:01.563Z,100.00
2023-04-16T00:41:29.418Z,100.00
2023-04-16T00:43:57.360Z,100.00
2023-04-16T00:46:27.511Z,100.00
2023-04-16T00:48:56.033Z,100.00
2023-04-16T00:51:24.259Z,100.00
2023-04-16T00:53:52.329Z,100.00
2023-04-16T00:56:20.691Z,100.00
2023-04-16T00:58:48.969Z,100.00
2023-04-16T01:01:16.949Z,100.00
2023-04-16T01:03:48.967Z,100.00
2023-04-16T01:06:18.812Z,100.00
2023-04-16T01:08:48.302Z,100.00
2023-04-16T01:11:16.892Z,100.00
2023-04-16T01:13:44.860Z,100.00
2023-04-16T01:16:13.645Z,100.00
2023-04-16T01:18:41.673Z,100.00
2023-04-16T01:21:11.193Z,100.00
2023-04-16T01:23:39.059Z,100.00
2023-04-16T01:26:07.006Z,100.00
2023-04-16T01:28:34.955Z,100.00
2023-04-16T01:31:02.907Z,100.00
2023-04-16T01:33:30.922Z,100.00
2023-04-16T01:35:58.851Z,100.00
2023-04-16T01:38:28.257Z,100.00
2023-04-16T01:40:59.450Z,100.00
2023-04-16T01:43:27.397Z,100.00
2023-04-16T01:46:10.087Z,100.00
2023-04-16T01:48:38.247Z,100.00
2023-04-16T01:51:06.640Z,100.00
2023-04-16T01:53:37.121Z,100.00
2023-04-16T01:56:05.798Z,100.00
2023-04-16T01:58:34.439Z,100.00
2023-04-16T02:01:02.528Z,100.00
2023-04-16T02:03:31.830Z,100.00
2023-04-16T02:05:59.824Z,100.00
2023-04-16T02:08:27.849Z,100.00
2023-04-16T02:10:57.961Z,100.00
2023-04-16T02:13:26.120Z,100.00
2023-04-16T02:15:54.116Z,100.00
2023-04-16T02:18:22.110Z,100.00
2023-04-16T02:20:50.639Z,100.00
2023-04-16T02:23:18.602Z,100.00
2023-04-16T02:25:47.649Z,100.00
2023-04-16T02:28:18.017Z,100.00
2023-04-16T02:30:46.302Z,100.00
2023-04-16T02:33:14.288Z,100.00
2023-04-16T02:35:42.539Z,100.00
2023-04-16T02:38:10.568Z,100.00
2023-04-16T02:40:38.400Z,100.00
2023-04-16T02:43:06.269Z,100.00
2023-04-16T02:45:35.608Z,100.00
2023-04-16T02:48:03.613Z,100.00
2023-04-16T02:50:31.563Z,100.00
2023-04-16T02:52:59.523Z,100.00
2023-04-16T02:55:28.220Z,100.00
2023-04-16T02:57:56.072Z,100.00
2023-04-16T03:00:23.942Z,100.00
2023-04-16T03:02:53.398Z,100.00
2023-04-16T03:05:21.636Z,100.00
2023-04-16T03:07:50.688Z,100.00
2023-04-16T03:10:18.498Z,100.00
2023-04-16T03:12:46.390Z,100.00
2023-04-16T03:15:14.389Z,100.00
2023-04-16T03:17:42.324Z,100.00
2023-04-16T03:20:12.438Z,100.00
2023-04-16T03:22:40.502Z,100.00
2023-04-16T03:25:09.414Z,100.00
2023-04-16T03:27:37.534Z,100.00
2023-04-16T03:30:06.514Z,100.00
2023-04-16T03:32:34.477Z,100.00
2023-04-16T03:35:02.348Z,100.00
2023-04-16T03:37:32.008Z,100.00
2023-04-16T03:40:00.055Z,100.00
2023-04-16T03:42:28.221Z,100.00
2023-04-16T03:44:56.097Z,100.00
2023-04-16T03:47:24.322Z,100.00
2023-04-16T03:49:52.503Z,100.00
2023-04-16T03:52:20.369Z,100.00
2023-04-16T03:54:49.677Z,100.00
2023-04-16T03:57:17.551Z,100.00
2023-04-16T03:59:45.488Z,100.00
2023-04-16T04:02:13.404Z,100.00
2023-04-16T04:04:41.519Z,100.00
2023-04-16T04:07:09.393Z,100.00
2023-04-16T04:09:37.330Z,100.00
2023-04-16T04:12:06.699Z,100.00
2023-04-16T04:14:39.683Z,100.00
2023-04-16T04:17:07.766Z,100.00
2023-04-16T04:19:36.268Z,100.00
2023-04-16T04:22:04.976Z,100.00
2023-04-16T04:24:32.957Z,100.00
2023-04-16T04:27:01.798Z,100.00
2023-04-16T04:29:31.097Z,100.00
2023-04-16T04:31:59.144Z,100.00
2023-04-16T04:34:26.989Z,100.00
2023-04-16T04:36:54.868Z,100.00
2023-04-16T04:39:22.739Z,100.00
2023-04-16T04:41:50.749Z,100.00
2023-04-16T04:44:18.612Z,100.00
2023-04-16T04:46:47.832Z,100.00
2023-04-16T04:49:15.784Z,100.00
2023-04-16T04:51:43.737Z,100.00
2023-04-16T04:54:11.792Z,100.00
2023-04-16T04:56:40.012Z,100.00
2023-04-16T04:59:08.241Z,100.00
2023-04-16T05:01:36.375Z,100.00
2023-04-16T05:04:06.427Z,100.00
2023-04-16T05:06:34.127Z,100.00
2023-04-16T05:09:02.089Z,100.00
2023-04-16T05:11:31.108Z,100.00
2023-04-16T05:13:59.028Z,100.00
2023-04-16T05:16:27.142Z,100.00
2023-04-16T05:18:56.118Z,100.00
2023-04-16T05:21:26.338Z,100.00
2023-04-16T05:23:54.435Z,100.00
2023-04-16T05:26:22.904Z,100.00
2023-04-16T05:28:50.718Z,100.00
2023-04-16T05:31:18.687Z,100.00
2023-04-16T05:33:46.604Z,100.00
2023-04-16T05:36:14.519Z,100.00
2023-04-16T05:38:43.741Z,100.00
2023-04-16T05:41:11.638Z,100.00
2023-04-16T05:43:39.507Z,100.00
2023-04-16T05:46:07.477Z,100.00
2023-04-16T05:48:35.404Z,100.00
2023-04-16T05:51:03.394Z,100.00
2023-04-16T05:53:31.282Z,100.00
2023-04-16T05:56:00.601Z,100.00
2023-04-16T05:58:28.477Z,100.00
2023-04-16T06:00:56.568Z,100.00
2023-04-16T06:03:24.559Z,100.00
2023-04-16T06:05:52.597Z,100.00
2023-04-16T06:08:20.774Z,100.00
2023-04-16T06:10:51.353Z,100.00
2023-04-16T06:13:20.757Z,100.00
2023-04-16T06:15:49.016Z,100.00
2023-04-16T06:18:16.977Z,100.00
2023-04-16T06:20:45.082Z,100.00
2023-04-16T06:23:12.917Z,100.00
2023-04-16T06:25:40.928Z,100.00
2023-04-16T06:28:08.793Z,100.00
2023-04-16T06:30:38.249Z,100.00
2023-04-16T06:33:06.643Z,100.00
2023-04-16T06:35:34.576Z,100.00
2023-04-16T06:38:02.475Z,100.00
2023-04-16T06:40:30.591Z,100.00
2023-04-16T06:42:58.549Z,100.00
2023-04-16T06:45:26.391Z,100.00
2023-04-16T06:47:55.800Z,100.00
2023-04-16T06:50:23.748Z,100.00
2023-04-16T06:52:51.747Z,100.00
2023-04-16T06:55:19.737Z,100.00
2023-04-16T06:57:47.746Z,100.00
2023-04-16T07:00:15.898Z,100.00
2023-04-16T07:02:43.890Z,100.00
2023-04-16T07:05:13.271Z,100.00
2023-04-16T07:07:41.200Z,100.00
2023-04-16T07:10:09.971Z,100.00
2023-04-16T07:12:38.028Z,100.00
2023-04-16T07:15:07.310Z,100.00
2023-04-16T07:17:35.298Z,100.00
2023-04-16T07:20:03.230Z,100.00
2023-04-16T07:22:32.511Z,100.00
2023-04-16T07:25:00.472Z,100.00
2023-04-16T07:27:28.326Z,100.00
2023-04-16T07:29:56.218Z,100.00
2023-04-16T07:32:24.420Z,100.00
2023-04-16T07:34:52.382Z,100.00
2023-04-16T07:37:20.408Z,100.00
2023-04-16T07:39:49.636Z,100.00
2023-04-16T07:42:17.494Z,100.00
2023-04-16T07:44:45.469Z,100.00
2023-04-16T07:47:13.345Z,100.00
2023-04-16T07:49:41.289Z,100.00
2023-04-16T07:52:09.247Z,100.00
2023-04-16T07:54:37.197Z,100.00
2023-04-16T07:57:06.523Z,100.00
2023-04-16T07:59:34.417Z,100.00
2023-04-16T08:02:02.705Z,100.00
2023-04-16T08:04:30.892Z,100.00
2023-04-16T08:06:58.900Z,98.91
2023-04-16T08:09:28.563Z,98.54
2023-04-16T08:11:56.472Z,98.35
2023-04-16T08:14:25.785Z,95.44
2023-04-16T08:16:53.720Z,95.04
2023-04-16T08:19:21.588Z,94.34
2023-04-16T08:21:49.509Z,93.93
2023-04-16T08:24:17.488Z,91.65
2023-04-16T08:26:45.459Z,90.79
2023-04-16T08:29:13.429Z,89.62
2023-04-16T08:31:43.269Z,90.03
2023-04-16T08:34:12.488Z,90.26
2023-04-16T08:36:41.942Z,89.66
2023-04-16T08:39:10.146Z,88.69
2023-04-16T08:41:42.061Z,87.36
2023-04-16T08:44:11.274Z,86.52
2023-04-16T08:46:41.750Z,86.15
2023-04-16T08:49:17.992Z,83.27
2023-04-16T08:51:51.946Z,81.94
2023-04-16T08:54:32.389Z,82.39
2023-04-16T08:57:01.443Z,83.76
2023-04-16T08:59:30.717Z,82.38
2023-04-16T09:02:00.168Z,80.97
2023-04-16T09:04:30.149Z,76.07
2023-04-16T09:06:59.964Z,76.84
2023-04-16T09:09:28.553Z,77.41
2023-04-16T09:11:57.516Z,76.16
2023-04-16T09:14:26.265Z,74.82
2023-04-16T09:16:55.670Z,76.59
2023-04-16T09:19:25.500Z,75.40
2023-04-16T09:21:55.021Z,74.04
2023-04-16T09:24:23.290Z,75.04
2023-04-16T09:26:53.698Z,73.32
2023-04-16T09:29:35.995Z,71.93
2023-04-16T09:32:05.465Z,74.67
2023-04-16T09:34:34.520Z,72.96
2023-04-16T09:37:19.365Z,67.55
2023-04-16T09:39:55.024Z,69.50
2023-04-16T09:42:24.508Z,71.85
2023-04-16T09:44:52.763Z,71.82
2023-04-16T09:47:21.480Z,70.91
2023-04-16T09:49:49.577Z,70.99
2023-04-16T09:52:20.041Z,70.84
2023-04-16T09:54:49.588Z,72.04
2023-04-16T09:57:21.865Z,70.07
2023-04-16T09:59:50.384Z,70.81
2023-04-16T10:02:18.674Z,70.42
2023-04-16T10:04:48.350Z,67.98
2023-04-16T10:07:16.575Z,67.33
2023-04-16T10:09:45.929Z,67.65
2023-04-16T10:12:13.904Z,69.09
2023-04-16T10:14:42.294Z,67.16
2023-04-16T10:17:10.642Z,68.15
2023-04-16T10:19:38.977Z,67.39
2023-04-16T10:22:06.954Z,65.53
2023-04-16T10:24:36.158Z,64.47
2023-04-16T10:27:05.458Z,63.40
2023-04-16T10:29:34.563Z,63.76
2023-04-16T10:32:02.782Z,64.04
2023-04-16T10:34:32.506Z,64.30
2023-04-16T10:37:00.416Z,62.23
2023-04-16T10:39:29.622Z,61.39
2023-04-16T10:42:11.805Z,58.22
2023-04-16T10:44:43.403Z,61.96
2023-04-16T10:47:14.374Z,60.09
2023-04-16T10:49:43.830Z,61.55
2023-04-16T10:52:13.455Z,61.04
2023-04-16T10:54:42.013Z,61.26
2023-04-16T10:57:17.939Z,60.71
2023-04-16T10:59:46.514Z,60.22
2023-04-16T11:02:16.614Z,59.44
2023-04-16T11:04:46.034Z,59.17
2023-04-16T11:07:19.798Z,57.67
2023-04-16T11:09:59.870Z,55.47
2023-04-16T11:12:37.701Z,56.82
2023-04-16T11:15:08.113Z,59.30
2023-04-16T11:17:41.525Z,55.49
2023-04-16T11:20:19.661Z,54.86
2023-04-16T11:22:48.970Z,56.72
2023-04-16T11:25:21.151Z,55.48
2023-04-16T11:27:50.821Z,56.75
2023-04-16T11:30:19.728Z,54.80
2023-04-16T11:32:47.861Z,55.26
2023-04-16T11:35:17.304Z,54.77
2023-04-16T11:37:45.858Z,54.37
2023-04-16T11:40:14.269Z,54.61
2023-04-16T11:42:44.251Z,53.98
2023-04-16T11:45:14.124Z,52.24
2023-04-16T11:47:46.622Z,52.05
2023-04-16T11:50:21.516Z,51.58
2023-04-16T11:52:50.003Z,52.69
2023-04-16T11:55:18.358Z,52.41
2023-04-16T11:57:46.878Z,52.55
2023-04-16T12:00:16.748Z,51.77
2023-04-16T12:02:46.610Z,49.82
2023-04-16T12:05:31.896Z,45.96
2023-04-16T12:08:00.872Z,51.03
2023-04-16T12:10:29.329Z,50.03
2023-04-16T12:13:11.513Z,47.04
2023-04-16T12:15:48.301Z,48.04
2023-04-16T12:18:16.978Z,49.93
2023-04-16T12:20:46.229Z,49.47
2023-04-16T12:23:24.567Z,47.99
2023-04-16T12:25:52.523Z,50.92
2023-04-16T12:28:32.074Z,48.02
2023-04-16T12:31:01.739Z,50.72
2023-04-16T12:33:29.993Z,49.78
2023-04-16T12:35:58.178Z,48.64
2023-04-16T12:38:26.814Z,48.47
2023-04-16T12:40:57.329Z,48.52
2023-04-16T12:43:25.738Z,48.65
2023-04-16T12:45:53.853Z,48.58
2023-04-16T12:48:23.170Z,48.01
2023-04-16T12:50:51.120Z,48.83
2023-04-16T12:53:19.090Z,48.35
2023-04-16T12:55:47.041Z,47.19
2023-04-16T12:58:15.010Z,47.70
2023-04-16T13:00:42.820Z,46.62
2023-04-16T13:03:10.860Z,47.73
2023-04-16T13:05:40.972Z,47.43
2023-04-16T13:08:08.976Z,47.44
2023-04-16T13:10:36.930Z,48.33
2023-04-16T13:13:04.846Z,48.40
2023-04-16T13:15:32.829Z,49.05
2023-04-16T13:18:00.896Z,48.53
2023-04-16T13:20:28.779Z,48.08
2023-04-16T13:22:58.470Z,48.06
2023-04-16T13:25:26.478Z,47.93
2023-04-16T13:27:54.347Z,48.15
2023-04-16T13:30:22.159Z,48.01
2023-04-16T13:32:50.088Z,47.56
2023-04-16T13:35:18.177Z,47.92
2023-04-16T13:37:46.016Z,47.86
2023-04-16T13:40:15.293Z,46.11
2023-04-16T13:42:43.409Z,46.40
2023-04-16T13:45:11.414Z,47.17
2023-04-16T13:47:40.394Z,45.23
2023-04-16T13:50:09.740Z,46.63
2023-04-16T13:52:37.926Z,46.48
2023-04-16T13:55:06.567Z,45.90
2023-04-16T13:57:36.444Z,46.15
2023-04-16T14:00:04.834Z,46.15
2023-04-16T14:05:00.734Z,46.82
2023-04-16T14:07:29.245Z,46.05
2023-04-16T14:09:57.145Z,44.78
2023-04-16T14:12:25.118Z,45.17
2023-04-16T14:14:54.394Z,45.86
2023-04-16T14:17:22.310Z,44.77
2023-04-16T14:19:50.273Z,45.71
2023-04-16T14:22:18.418Z,45.71
2023-04-16T14:24:46.319Z,45.34
2023-04-16T14:27:14.223Z,44.82
2023-04-16T14:29:42.394Z,44.79
2023-04-16T14:32:11.715Z,44.86
2023-04-16T14:34:39.593Z,43.96
2023-04-16T14:37:07.678Z,45.58
2023-04-16T14:39:36.482Z,45.22
2023-04-16T14:42:04.468Z,44.74
2023-04-16T14:44:32.387Z,44.47
2023-04-16T14:47:00.306Z,44.82
2023-04-16T14:49:29.701Z,43.71
2023-04-16T14:51:57.776Z,44.81
2023-04-16T14:54:26.505Z,44.87
2023-04-16T14:56:54.346Z,43.90
2023-04-16T14:59:22.260Z,43.86
2023-04-16T15:01:50.478Z,43.67
2023-04-16T15:04:18.597Z,43.73
2023-04-16T15:06:47.998Z,43.43
2023-04-16T15:09:15.875Z,44.82
2023-04-16T15:11:43.740Z,43.98
2023-04-16T15:14:11.726Z,43.72
2023-04-16T15:16:39.806Z,44.63
2023-04-16T15:19:07.958Z,42.90
2023-04-16T15:21:35.899Z,43.09
2023-04-16T15:24:05.677Z,43.61
2023-04-16T15:26:33.581Z,42.85
2023-04-16T15:29:01.618Z,43.27
2023-04-16T15:31:29.569Z,43.29
2023-04-16T15:33:57.680Z,42.90
2023-04-16T15:36:26.671Z,43.10
2023-04-16T15:38:54.672Z,44.35
2023-04-16T15:41:24.579Z,42.21
2023-04-16T15:43:52.432Z,42.91
2023-04-16T15:46:20.413Z,44.10
2023-04-16T15:48:48.348Z,44.03
2023-04-16T15:51:16.392Z,45.08
2023-04-16T15:53:45.319Z,45.11
2023-04-16T15:56:13.296Z,45.32
2023-04-16T15:58:42.611Z,44.24
2023-04-16T16:01:10.520Z,43.16
2023-04-16T16:03:38.701Z,43.02
2023-04-16T16:06:08.476Z,45.52
2023-04-16T16:08:38.269Z,45.88
2023-04-16T16:11:06.371Z,45.55
2023-04-16T16:13:35.961Z,46.36
2023-04-16T16:16:05.602Z,47.30
2023-04-16T16:18:33.514Z,48.24
2023-04-16T16:21:01.569Z,47.55
2023-04-16T16:23:29.676Z,47.83
2023-04-16T16:25:57.676Z,48.12
2023-04-16T16:28:26.167Z,47.97
2023-04-16T16:30:55.779Z,47.90
2023-04-16T16:33:25.080Z,47.05
2023-04-16T16:35:52.938Z,47.13
2023-04-16T16:38:20.939Z,48.02
2023-04-16T16:40:48.903Z,47.65
2023-04-16T16:43:16.928Z,48.34
2023-04-16T16:45:45.095Z,46.46
2023-04-16T16:48:13.163Z,46.44
2023-04-16T16:50:42.368Z,46.01
2023-04-16T16:53:10.568Z,46.98
2023-04-16T16:55:38.527Z,46.45
2023-04-16T16:58:06.354Z,46.70
2023-04-16T17:00:34.374Z,46.84
2023-04-16T17:03:02.453Z,46.78
2023-04-16T17:05:30.544Z,47.71
2023-04-16T17:07:59.916Z,47.48
2023-04-16T17:10:27.817Z,47.76
2023-04-16T17:12:56.035Z,47.78
2023-04-16T17:15:24.136Z,47.95
2023-04-16T17:17:52.148Z,48.52
2023-04-16T17:20:20.259Z,49.69
2023-04-16T17:22:48.194Z,49.28
2023-04-16T17:25:17.538Z,49.86
2023-04-16T17:27:45.483Z,50.31
2023-04-16T17:30:13.819Z,50.58
2023-04-16T17:32:41.785Z,49.75
2023-04-16T17:35:11.007Z,50.38
2023-04-16T17:37:38.962Z,50.61
2023-04-16T17:40:10.122Z,50.29
2023-04-16T17:42:39.974Z,51.27
2023-04-16T17:45:08.879Z,51.34
2023-04-16T17:47:37.020Z,51.33
2023-04-16T17:50:05.577Z,51.66
2023-04-16T17:52:33.495Z,52.27
2023-04-16T17:55:03.671Z,51.83
2023-04-16T17:57:32.188Z,52.63
2023-04-16T18:00:01.578Z,52.68
2023-04-16T18:02:29.659Z,52.59
2023-04-16T18:04:57.688Z,52.51
2023-04-16T18:07:26.628Z,52.82
2023-04-16T18:09:54.439Z,53.02
2023-04-16T18:12:22.388Z,53.13
2023-04-16T18:14:50.419Z,53.12
2023-04-16T18:17:21.894Z,53.54
2023-04-16T18:19:49.779Z,53.80
2023-04-16T18:22:17.683Z,54.19
2023-04-16T18:24:45.606Z,54.83
2023-04-16T18:27:13.441Z,54.33
2023-04-16T18:29:44.094Z,54.01
2023-04-16T18:32:13.157Z,54.88
2023-04-16T18:34:42.481Z,54.46
2023-04-16T18:37:10.471Z,55.69
2023-04-16T18:39:38.377Z,56.18
2023-04-16T18:42:06.462Z,56.50
2023-04-16T18:44:36.702Z,56.43
2023-04-16T18:47:04.776Z,56.79
2023-04-16T18:49:32.708Z,57.22
2023-04-16T18:52:01.952Z,56.92
2023-04-16T18:54:29.810Z,57.36
2023-04-16T18:56:59.683Z,57.03
2023-04-16T18:59:28.565Z,57.22
2023-04-16T19:01:56.760Z,57.33
2023-04-16T19:04:24.930Z,57.46
2023-04-16T19:06:54.914Z,58.75
2023-04-16T19:09:26.459Z,58.60
2023-04-16T19:11:54.366Z,58.25
2023-04-16T19:14:22.245Z,59.09
2023-04-16T19:16:50.144Z,57.53
2023-04-16T19:19:18.084Z,58.01
2023-04-16T19:21:46.013Z,59.52
2023-04-16T19:24:13.842Z,58.82
2023-04-16T19:26:43.145Z,59.61
2023-04-16T19:29:11.323Z,60.26
2023-04-16T19:31:39.466Z,59.33
2023-04-16T19:34:07.508Z,59.73
2023-04-16T19:36:35.485Z,60.01
2023-04-16T19:39:03.906Z,59.64
2023-04-16T19:41:31.772Z,60.18
2023-04-16T19:44:01.068Z,60.32
2023-04-16T19:46:28.976Z,59.98
2023-04-16T19:48:56.815Z,60.02
2023-04-16T19:51:24.657Z,60.20
2023-04-16T19:53:53.880Z,60.47
2023-04-16T19:56:21.758Z,61.06
2023-04-16T19:58:49.718Z,60.71
2023-04-16T20:01:19.111Z,60.53
2023-04-16T20:03:46.982Z,60.41
2023-04-16T20:06:14.937Z,61.07
2023-04-16T20:08:44.489Z,60.34
2023-04-16T20:11:13.052Z,60.79
2023-04-16T20:13:41.007Z,61.36
2023-04-16T20:16:09.410Z,61.60
2023-04-16T20:18:41.467Z,61.23
2023-04-16T20:21:09.850Z,61.10
2023-04-16T20:23:37.753Z,61.47
2023-04-16T20:26:05.647Z,62.32
2023-04-16T20:28:33.618Z,62.10
2023-04-16T20:31:01.514Z,61.73
2023-04-16T20:33:29.541Z,62.15
2023-04-16T20:35:58.789Z,62.51
2023-04-16T20:38:29.609Z,63.07
2023-04-16T20:41:06.587Z,63.73
2023-04-16T20:43:38.615Z,63.86
2023-04-16T20:46:06.757Z,63.69
2023-04-16T20:48:34.914Z,63.72
2023-04-16T20:51:06.517Z,63.51
2023-04-16T20:53:34.509Z,62.98
2023-04-16T20:56:02.467Z,63.31
2023-04-16T20:58:30.779Z,63.96
2023-04-16T21:00:59.078Z,63.89
2023-04-16T21:03:27.230Z,64.78
2023-04-16T21:05:56.852Z,64.97
2023-04-16T21:08:26.388Z,64.75
2023-04-16T21:10:54.348Z,64.69
2023-04-16T21:13:22.251Z,65.33
2023-04-16T21:15:50.189Z,65.31
2023-04-16T21:18:18.607Z,65.49
2023-04-16T21:20:46.595Z,65.80
2023-04-16T21:23:15.780Z,65.39
2023-04-16T21:25:47.366Z,65.88
2023-04-16T21:28:15.296Z,65.28
2023-04-16T21:30:43.355Z,64.95
2023-04-16T21:33:12.781Z,65.78
2023-04-16T21:35:40.734Z,64.82
2023-04-16T21:38:08.668Z,65.38
2023-04-16T21:40:36.614Z,65.48
2023-04-16T21:43:06.503Z,65.01
2023-04-16T21:45:34.342Z,65.67
2023-04-16T21:48:02.317Z,66.93
2023-04-16T21:50:30.206Z,67.08
2023-04-16T21:52:58.134Z,67.93
2023-04-16T21:55:26.160Z,67.84
2023-04-16T21:57:54.149Z,68.19
2023-04-16T22:00:23.460Z,67.66
2023-04-16T22:02:56.380Z,67.46
2023-04-16T22:05:24.393Z,68.70
2023-04-16T22:07:52.674Z,68.73
2023-04-16T22:10:20.728Z,68.90
2023-04-16T22:12:48.600Z,68.88
2023-04-16T22:15:16.524Z,68.36
2023-04-16T22:17:47.089Z,68.36
2023-04-16T22:20:15.924Z,67.54
2023-04-16T22:22:44.141Z,67.67
2023-04-16T22:25:12.631Z,67.76
2023-04-16T22:27:40.811Z,67.54
2023-04-16T22:30:09.682Z,67.20
2023-04-16T22:32:37.646Z,67.45
2023-04-16T22:35:07.488Z,68.30
2023-04-16T22:37:35.451Z,68.00
2023-04-16T22:40:07.576Z,67.85
2023-04-16T22:42:35.502Z,67.85
2023-04-16T22:45:04.560Z,67.45
2023-04-16T22:47:32.464Z,67.53
2023-04-16T22:50:00.618Z,66.97
2023-04-16T22:52:30.060Z,67.32
2023-04-16T22:54:57.999Z,68.03
2023-04-16T22:57:26.470Z,67.79
2023-04-16T22:59:54.379Z,67.56
2023-04-16T23:02:22.585Z,67.75
2023-04-16T23:04:50.555Z,67.27
2023-04-16T23:07:18.400Z,68.42
2023-04-16T23:09:47.687Z,68.06
2023-04-16T23:12:15.504Z,68.34
2023-04-16T23:14:46.140Z,67.22
2023-04-16T23:17:14.751Z,68.98
2023-04-16T23:19:42.649Z,68.26
2023-04-16T23:22:10.568Z,69.33
2023-04-16T23:24:38.433Z,68.49
2023-04-16T23:27:07.697Z,68.95
2023-04-16T23:29:35.611Z,69.46
2023-04-16T23:32:03.411Z,69.94
2023-04-16T23:34:31.764Z,69.76
2023-04-16T23:36:59.651Z,70.38
2023-04-16T23:39:27.501Z,70.18
2023-04-16T23:41:55.400Z,70.23
2023-04-16T23:44:24.664Z,71.49
2023-04-16T23:46:52.573Z,71.48
2023-04-16T23:49:20.572Z,71.09
2023-04-16T23:51:48.468Z,71.58
2023-04-16T23:54:17.156Z,71.13
2023-04-16T23:56:45.054Z,71.32
2023-04-16T23:59:13.022Z,71.88
